TimeCST,TemperatureF,Dew PointF,Humidity,Sea Level PressureIn,VisibilityMPH,Wind Direction,Wind SpeedMPH,Gust SpeedMPH,PrecipitationIn,Events,Conditions,WindDirDegrees,DateUTC
12:15 AM,-9.4,-13.0,84,30.36,10.0,West,8.1,-,N/A,,Clear,280,2014-02-04 06:15:00
12:35 AM,-9.4,-14.8,77,30.36,10.0,WNW,6.9,-,N/A,,Clear,290,2014-02-04 06:35:00
12:55 AM,-9.4,-14.8,77,30.37,10.0,West,8.1,-,N/A,,Clear,280,2014-02-04 06:55:00
1:15 AM,-11.2,-14.8,84,30.38,10.0,West,6.9,-,N/A,,Clear,280,2014-02-04 07:15:00
1:35 AM,-11.2,-14.8,84,30.38,10.0,WNW,8.1,-,N/A,,Clear,290,2014-02-04 07:35:00
1:55 AM,-11.2,-14.8,84,30.39,10.0,West,9.2,-,N/A,,Clear,280,2014-02-04 07:55:00
2:15 AM,-11.2,-16.6,77,30.40,10.0,WNW,9.2,-,N/A,,Clear,290,2014-02-04 08:15:00
2:35 AM,-11.2,-16.6,77,30.41,10.0,WNW,6.9,-,N/A,,Clear,290,2014-02-04 08:35:00
2:55 AM,-11.2,-16.6,77,30.41,10.0,WNW,8.1,-,N/A,,Clear,290,2014-02-04 08:55:00
3:15 AM,-11.2,-16.6,77,30.42,10.0,WNW,6.9,-,N/A,,Clear,290,2014-02-04 09:15:00
3:34 AM,-13.0,-16.6,84,30.42,10.0,WNW,6.9,-,N/A,,Clear,300,2014-02-04 09:34:00
3:55 AM,-14.8,-18.4,84,30.43,10.0,WNW,6.9,-,N/A,,Clear,300,2014-02-04 09:55:00
4:15 AM,-14.8,-18.4,84,30.43,10.0,WNW,4.6,-,N/A,,Clear,290,2014-02-04 10:15:00
4:34 AM,-16.6,-20.2,84,30.44,10.0,Calm,Calm,-,N/A,,Clear,0,2014-02-04 10:34:00
4:55 AM,-18.4,-23.8,76,30.44,10.0,WNW,3.5,-,N/A,,Clear,290,2014-02-04 10:55:00
5:15 AM,-16.6,-20.2,84,30.44,10.0,WNW,6.9,-,N/A,,Clear,290,2014-02-04 11:15:00
5:35 AM,-16.6,-22.0,76,30.44,10.0,West,5.8,-,N/A,,Clear,280,2014-02-04 11:35:00
5:55 AM,-18.4,-23.8,76,30.44,10.0,Calm,Calm,-,N/A,,Scattered Clouds,0,2014-02-04 11:55:00
6:15 AM,-20.2,-25.6,76,30.45,10.0,Calm,Calm,-,N/A,,Scattered Clouds,0,2014-02-04 12:15:00
6:35 AM,-20.2,-25.6,76,30.45,10.0,WNW,3.5,-,N/A,,Clear,290,2014-02-04 12:35:00
6:55 AM,-18.4,-23.8,76,30.45,10.0,West,3.5,-,N/A,,Clear,280,2014-02-04 12:55:00
7:15 AM,-18.4,-23.8,76,30.46,10.0,Calm,Calm,-,N/A,,Clear,0,2014-02-04 13:15:00
7:35 AM,-18.4,-25.6,70,30.46,10.0,WNW,3.5,-,N/A,,Clear,300,2014-02-04 13:35:00
7:55 AM,-18.4,-23.8,76,30.46,10.0,Calm,Calm,-,N/A,,Clear,0,2014-02-04 13:55:00
8:15 AM,-20.2,-25.6,76,30.48,10.0,Calm,Calm,-,N/A,,Clear,0,2014-02-04 14:15:00
8:35 AM,-16.6,-20.2,84,30.49,10.0,WNW,3.5,-,N/A,,Clear,290,2014-02-04 14:35:00
8:55 AM,-14.8,-18.4,84,30.49,10.0,NW,5.8,-,N/A,,Clear,310,2014-02-04 14:55:00
9:15 AM,-13.0,-18.4,77,30.49,10.0,NNW,4.6,-,N/A,,Clear,330,2014-02-04 15:15:00
9:35 AM,-11.2,-16.6,77,30.50,10.0,Calm,Calm,-,N/A,,Clear,0,2014-02-04 15:35:00
9:55 AM,-7.6,-13.0,77,30.50,10.0,NW,3.5,-,N/A,,Clear,320,2014-02-04 15:55:00
10:15 AM,-5.8,-14.8,65,30.50,10.0,NNW,4.6,-,N/A,,Clear,330,2014-02-04 16:15:00
10:35 AM,-4.0,-14.8,60,30.51,10.0,Calm,Calm,-,N/A,,Clear,0,2014-02-04 16:35:00
10:55 AM,-0.4,-11.2,60,30.52,10.0,Calm,Calm,-,N/A,,Clear,0,2014-02-04 16:55:00
11:15 AM,-0.4,-11.2,60,30.52,10.0,Calm,Calm,-,N/A,,Clear,0,2014-02-04 17:15:00
11:35 AM,-0.4,-14.8,51,30.52,10.0,Calm,Calm,-,N/A,,Clear,0,2014-02-04 17:35:00
11:55 AM,1.4,-11.2,56,30.52,10.0,Calm,Calm,-,N/A,,Clear,0,2014-02-04 17:55:00
12:15 PM,3.2,-13.0,47,30.52,10.0,Calm,Calm,-,N/A,,Clear,0,2014-02-04 18:15:00
12:35 PM,3.2,-11.2,51,30.51,10.0,Calm,Calm,-,N/A,,Clear,0,2014-02-04 18:35:00
12:55 PM,3.2,-11.2,51,30.51,10.0,NW,3.5,-,N/A,,Clear,310,2014-02-04 18:55:00
1:15 PM,3.2,-13.0,47,30.50,10.0,NW,5.8,-,N/A,,Clear,310,2014-02-04 19:15:00
1:35 PM,3.2,-13.0,47,30.50,10.0,NNW,6.9,-,N/A,,Clear,330,2014-02-04 19:35:00
1:55 PM,3.2,-13.0,47,30.50,10.0,WNW,5.8,-,N/A,,Clear,300,2014-02-04 19:55:00
2:15 PM,3.2,-14.8,43,30.49,10.0,WNW,5.8,-,N/A,,Clear,300,2014-02-04 20:15:00
2:35 PM,3.2,-14.8,43,30.49,10.0,NW,6.9,-,N/A,,Clear,320,2014-02-04 20:35:00
2:55 PM,3.2,-14.8,43,30.49,10.0,NW,6.9,-,N/A,,Clear,320,2014-02-04 20:55:00
3:15 PM,3.2,-14.8,43,30.49,10.0,NW,8.1,-,N/A,,Clear,320,2014-02-04 21:15:00
3:35 PM,3.2,-14.8,43,30.50,10.0,NW,6.9,-,N/A,,Clear,320,2014-02-04 21:35:00
3:55 PM,1.4,-14.8,47,30.50,10.0,NW,6.9,-,N/A,,Clear,320,2014-02-04 21:55:00
4:14 PM,1.4,-14.8,47,30.51,10.0,NW,5.8,-,N/A,,Clear,310,2014-02-04 22:14:00
4:35 PM,-0.4,-14.8,51,30.52,10.0,Calm,Calm,-,N/A,,Clear,0,2014-02-04 22:35:00
4:55 PM,-2.2,-16.6,50,30.53,10.0,West,4.6,-,N/A,,Clear,270,2014-02-04 22:55:00
5:14 PM,-4.0,-16.6,55,30.52,10.0,WNW,3.5,-,N/A,,Clear,290,2014-02-04 23:14:00
5:35 PM,-7.6,-16.6,65,30.52,10.0,Calm,Calm,-,N/A,,Clear,0,2014-02-04 23:35:00
5:55 PM,-9.4,-18.4,65,30.52,10.0,Calm,Calm,-,N/A,,Clear,0,2014-02-04 23:55:00
6:14 PM,-9.4,-16.6,71,30.53,10.0,West,3.5,-,N/A,,Clear,280,2014-02-05 00:14:00
6:35 PM,-9.4,-18.4,65,30.52,10.0,WNW,4.6,-,N/A,,Clear,300,2014-02-05 00:35:00
6:55 PM,-9.4,-18.4,65,30.53,10.0,WNW,4.6,-,N/A,,Clear,300,2014-02-05 00:55:00
7:14 PM,-11.2,-18.4,70,30.53,10.0,WNW,4.6,-,N/A,,Clear,300,2014-02-05 01:14:00
7:35 PM,-11.2,-18.4,70,30.51,10.0,NW,4.6,-,N/A,,Clear,310,2014-02-05 01:35:00
7:55 PM,-13.0,-18.4,77,30.51,10.0,NW,3.5,-,N/A,,Clear,320,2014-02-05 01:55:00
8:14 PM,-14.8,-20.2,77,30.51,10.0,NW,4.6,-,N/A,,Clear,310,2014-02-05 02:14:00
8:35 PM,-14.8,-20.2,77,30.51,10.0,NW,3.5,-,N/A,,Clear,310,2014-02-05 02:35:00
8:55 PM,-14.8,-20.2,77,30.51,10.0,Calm,Calm,-,N/A,,Clear,0,2014-02-05 02:55:00
9:14 PM,-16.6,-20.2,84,30.51,10.0,Calm,Calm,-,N/A,,Clear,0,2014-02-05 03:14:00
9:35 PM,-16.6,-20.2,84,30.52,10.0,WNW,3.5,-,N/A,,Mostly Cloudy,290,2014-02-05 03:35:00
9:55 PM,-14.8,-18.4,84,30.53,10.0,WNW,3.5,-,N/A,,Overcast,290,2014-02-05 03:55:00
10:14 PM,-13.0,-18.4,77,30.53,10.0,Calm,Calm,-,N/A,,Overcast,0,2014-02-05 04:14:00
10:35 PM,-14.8,-20.2,77,30.52,10.0,Calm,Calm,-,N/A,,Overcast,0,2014-02-05 04:35:00
10:55 PM,-11.2,-16.6,77,30.52,10.0,NW,5.8,-,N/A,,Overcast,310,2014-02-05 04:55:00
11:14 PM,-13.0,-18.4,77,30.51,10.0,NNW,4.6,-,N/A,,Overcast,340,2014-02-05 05:14:00
11:35 PM,-11.2,-16.6,77,30.52,10.0,NNW,6.9,-,N/A,,Mostly Cloudy,330,2014-02-05 05:35:00
11:55 PM,-9.4,-16.6,71,30.52,10.0,NNW,8.1,-,N/A,,Overcast,340,2014-02-05 05:55:00